Time;durP1;ratioP1;P1;durP2;ratioP2;P2;SDS_P1;SDS_P2;PMS_P1;PMS_P2;Temp;Humidity;BMP_temperature;BMP_pressure;BME280_temperature;BME280_humidity;BME280_pressure;Samples;Min_cycle;Max_cycle;Signal;HPM_P1;HPM_P2
2022/09/05 00:01:22;;;;;;;4.07;2.50;;;18.80;99.90;;;;;;5075789;28;20046;-68
2022/09/05 00:04:09;;;;;;;3.70;1.95;;;18.80;99.90;;;;;;5075285;28;20126;-68
2022/09/05 00:06:42;;;;;;;6.15;3.85;;;18.80;99.90;;;;;;5075326;28;20107;-68
2022/09/05 00:09:49;;;;;;;4.15;2.55;;;18.80;99.90;;;;;;5075446;28;20021;-68
2022/09/05 00:12:16;;;;;;;3.85;2.20;;;18.80;99.90;;;;;;5020086;28;20512;-68
2022/09/05 00:14:50;;;;;;;5.55;2.30;;;18.80;99.90;;;;;;5075199;28;20504;-69
2022/09/05 00:17:37;;;;;;;4.90;2.35;;;18.70;99.90;;;;;;5057045;28;20024;-68
2022/09/05 00:20:21;;;;;;;4.70;2.25;;;18.70;99.90;;;;;;5075256;28;20103;-68
2022/09/05 00:22:58;;;;;;;4.35;2.50;;;18.70;99.90;;;;;;5074860;28;20078;-68
2022/09/05 00:25:51;;;;;;;6.97;2.63;;;18.70;99.90;;;;;;5056715;28;20374;-68
2022/09/05 00:28:37;;;;;;;4.57;2.30;;;18.70;99.90;;;;;;5074923;28;20103;-69
2022/09/05 00:31:32;;;;;;;3.65;2.40;;;18.70;99.90;;;;;;5056259;28;20434;-68
2022/09/05 00:34:36;;;;;;;6.13;2.40;;;18.80;99.90;;;;;;5074560;28;20016;-68
2022/09/05 00:37:02;;;;;;;3.15;2.35;;;18.80;99.90;;;;;;4958141;28;20042;-68
2022/09/05 00:39:33;;;;;;;6.72;2.40;;;18.80;99.90;;;;;;4973712;28;20053;-70
2022/09/05 00:42:05;;;;;;;4.75;2.78;;;18.90;99.90;;;;;;4974108;28;20038;-68
2022/09/05 00:44:34;;;;;;;3.55;2.60;;;18.90;99.90;;;;;;4957470;28;20030;-69
2022/09/05 00:47:16;;;;;;;4.93;2.40;;;19.00;99.90;;;;;;4973427;28;20050;-68
2022/09/05 00:49:48;;;;;;;3.60;2.47;;;19.10;99.90;;;;;;4973655;28;20073;-68
2022/09/05 00:52:29;;;;;;;4.30;2.33;;;18.90;99.90;;;;;;4956951;28;20023;-68
2022/09/05 00:55:33;;;;;;;5.82;2.60;;;18.70;99.90;;;;;;4973321;28;20047;-69
2022/09/05 00:58:16;;;;;;;5.97;2.38;;;18.50;99.90;;;;;;4946941;28;20042;-68
2022/09/05 01:01:26;;;;;;;5.22;2.58;;;18.50;99.90;;;;;;4973347;28;20122;-69
2022/09/05 01:04:31;;;;;;;2.58;2.38;;;18.40;99.90;;;;;;4958505;28;20035;-69
2022/09/05 01:06:56;;;;;;;3.63;2.00;;;18.30;99.90;;;;;;4956883;28;20039;-69
2022/09/05 01:09:30;;;;;;;4.13;2.57;;;18.40;99.90;;;;;;4956926;28;20031;-69
2022/09/05 01:12:26;;;;;;;3.28;2.25;;;18.50;99.90;;;;;;4973165;28;20392;-69
2022/09/05 01:14:54;;;;;;;3.63;2.70;;;18.50;99.90;;;;;;5055717;28;20025;-69
2022/09/05 01:17:48;;;;;;;5.88;2.70;;;18.50;99.90;;;;;;5073779;28;20027;-69
2022/09/05 01:20:43;;;;;;;4.93;2.90;;;18.50;99.90;;;;;;5073675;28;20059;-70
2022/09/05 01:23:19;;;;;;;3.85;2.50;;;18.50;99.90;;;;;;5073881;28;20032;-69
2022/09/05 01:26:02;;;;;;;5.53;2.30;;;18.40;99.90;;;;;;5074151;28;20020;-69
2022/09/05 01:28:35;;;;;;;3.70;2.58;;;18.60;99.90;;;;;;5074017;28;20025;-69
2022/09/05 01:31:34;;;;;;;5.20;2.30;;;18.70;99.90;;;;;;5074728;28;20373;-69
2022/09/05 01:34:22;;;;;;;2.95;2.35;;;18.80;99.90;;;;;;5073808;28;20103;-69
2022/09/05 01:36:53;;;;;;;5.85;2.63;;;18.90;99.90;;;;;;5073666;28;20063;-69
2022/09/05 01:39:40;;;;;;;3.47;2.28;;;19.10;99.90;;;;;;5073907;28;20020;-69
2022/09/05 01:42:10;;;;;;;4.63;2.83;;;19.20;99.90;;;;;;5055640;28;20477;-69
2022/09/05 01:44:46;;;;;;;4.47;2.63;;;19.20;99.90;;;;;;5073820;28;20074;-69
2022/09/05 01:47:53;;;;;;;3.90;2.67;;;19.00;99.90;;;;;;5067440;28;20035;-69
2022/09/05 01:50:41;;;;;;;3.00;2.40;;;19.10;99.90;;;;;;5079261;28;20039;-69
2022/09/05 01:53:37;;;;;;;3.03;2.50;;;19.10;99.90;;;;;;5074780;28;20028;-69
2022/09/05 01:56:32;;;;;;;5.28;2.75;;;18.90;99.90;;;;;;5054574;28;20036;-69
2022/09/05 01:59:35;;;;;;;3.28;2.67;;;18.80;99.90;;;;;;5073508;28;20353;-68
2022/09/05 02:02:20;;;;;;;6.35;2.55;;;18.90;99.90;;;;;;5073376;28;20024;-69
2022/09/05 02:05:20;;;;;;;3.70;2.60;;;18.70;99.90;;;;;;5073117;28;20464;-68
2022/09/05 02:07:49;;;;;;;5.72;2.70;;;18.60;99.90;;;;;;4972170;28;20492;-68
2022/09/05 02:10:26;;;;;;;3.22;2.38;;;18.50;99.90;;;;;;4972618;28;20043;-68
2022/09/05 02:13:19;;;;;;;3.75;2.85;;;18.20;99.90;;;;;;4972613;28;20038;-68
2022/09/05 02:15:46;;;;;;;5.40;2.95;;;18.00;99.90;;;;;;4956087;28;20095;-68
2022/09/05 02:18:22;;;;;;;8.73;3.45;;;18.10;99.90;;;;;;4972108;28;20062;-69
2022/09/05 02:20:59;;;;;;;5.72;3.10;;;17.90;99.90;;;;;;4972210;28;20031;-69
2022/09/05 02:23:38;;;;;;;4.13;3.10;;;17.90;99.90;;;;;;4972340;28;20039;-69
2022/09/05 02:26:16;;;;;;;4.25;2.78;;;17.90;99.90;;;;;;4972308;28;20035;-69
2022/09/05 02:29:02;;;;;;;4.70;2.90;;;17.80;99.90;;;;;;4972336;28;20045;-69
2022/09/05 02:31:31;;;;;;;7.47;2.65;;;18.00;99.90;;;;;;4972527;28;20061;-69
2022/09/05 02:34:11;;;;;;;7.05;2.88;;;18.00;99.90;;;;;;4956138;28;20027;-70
2022/09/05 02:36:44;;;;;;;3.45;2.72;;;17.90;99.90;;;;;;4972578;28;20035;-69
2022/09/05 02:39:32;;;;;;;3.13;2.65;;;18.00;99.90;;;;;;4972419;28;20033;-69
2022/09/05 02:42:26;;;;;;;4.25;3.00;;;18.10;99.90;;;;;;5017945;28;20029;-69
2022/09/05 02:45:05;;;;;;;6.93;2.78;;;18.30;99.90;;;;;;5075183;28;20020;-69
2022/09/05 02:48:00;;;;;;;3.88;2.78;;;18.30;99.90;;;;;;5075125;28;20032;-69
2022/09/05 02:50:46;;;;;;;5.03;3.53;;;18.30;99.90;;;;;;5074205;28;20020;-69
2022/09/05 02:53:16;;;;;;;4.82;3.10;;;18.40;99.90;;;;;;5054869;28;20021;-69
2022/09/05 02:56:24;;;;;;;5.28;3.10;;;18.40;99.90;;;;;;5055681;28;20404;-69
2022/09/05 02:59:13;;;;;;;7.78;3.40;;;17.90;99.90;;;;;;5073051;28;20017;-69
2022/09/05 03:02:15;;;;;;;5.60;3.53;;;18.00;99.90;;;;;;5054619;28;20078;-69
2022/09/05 03:04:50;;;;;;;6.60;3.22;;;17.70;99.90;;;;;;5072472;28;20536;-69
2022/09/05 03:07:22;;;;;;;7.13;3.25;;;17.70;99.90;;;;;;5072597;28;20035;-69
2022/09/05 03:10:03;;;;;;;4.10;3.00;;;17.70;99.90;;;;;;5072521;28;20024;-69
2022/09/05 03:13:03;;;;;;;5.80;3.30;;;17.60;99.90;;;;;;5054575;28;20032;-69
2022/09/05 03:15:43;;;;;;;5.72;3.00;;;17.40;99.90;;;;;;5073960;28;20120;-69
2022/09/05 03:18:42;;;;;;;5.75;2.90;;;17.40;99.90;;;;;;5076450;28;20032;-69
2022/09/05 03:21:56;;;;;;;4.32;3.33;;;17.60;99.90;;;;;;5076366;28;20385;-69
2022/09/05 03:24:59;;;;;;;4.65;3.17;;;17.70;99.90;;;;;;5076437;28;20028;-69
2022/09/05 03:28:02;;;;;;;3.78;3.00;;;17.60;99.90;;;;;;5076449;28;20477;-69
2022/09/05 03:30:59;;;;;;;4.10;3.10;;;17.90;99.90;;;;;;5076718;28;20028;-68
2022/09/05 03:33:40;;;;;;;3.85;3.17;;;17.80;99.90;;;;;;5004419;28;20400;-68
2022/09/05 03:36:37;;;;;;;5.50;3.03;;;17.60;99.90;;;;;;5082320;28;20020;-68
2022/09/05 03:39:12;;;;;;;5.97;2.97;;;17.70;99.90;;;;;;4975940;28;20148;-69
2022/09/05 03:42:15;;;;;;;4.85;3.22;;;17.70;99.90;;;;;;5077463;28;20021;-69
2022/09/05 03:44:53;;;;;;;4.18;3.28;;;17.50;99.90;;;;;;5075664;28;20032;-68
2022/09/05 03:47:37;;;;;;;5.50;2.95;;;17.50;99.90;;;;;;5075608;28;20381;-68
2022/09/05 03:50:43;;;;;;;5.00;3.17;;;17.70;99.90;;;;;;5075752;28;20020;-68
2022/09/05 03:53:46;;;;;;;7.88;3.33;;;17.80;99.90;;;;;;5076030;28;20021;-68
2022/09/05 03:56:31;;;;;;;7.00;4.28;;;17.90;99.90;;;;;;5037768;23;20057;-70
2022/09/05 03:59:44;;;;;;;4.88;3.13;;;17.90;99.90;;;;;;5055674;28;20472;-70
2022/09/05 04:02:13;;;;;;;7.72;3.58;;;17.90;99.90;;;;;;4979288;28;20125;-71
2022/09/05 04:04:41;;;;;;;5.70;3.00;;;17.90;99.90;;;;;;4994321;28;20030;-71
2022/09/05 04:07:26;;;;;;;3.80;2.90;;;17.90;99.90;;;;;;4994283;28;20049;-71
2022/09/05 04:10:03;;;;;;;6.22;3.33;;;17.90;99.90;;;;;;4978201;28;20438;-70
2022/09/05 04:12:35;;;;;;;3.88;2.80;;;17.90;99.90;;;;;;4994215;28;20022;-71
2022/09/05 04:15:21;;;;;;;4.70;3.17;;;17.50;99.90;;;;;;4977874;28;20054;-71
2022/09/05 04:17:56;;;;;;;6.35;3.30;;;17.50;99.90;;;;;;4994327;28;20038;-71
2022/09/05 04:21:09;;;;;;;6.85;3.45;;;17.70;99.90;;;;;;4978269;28;20101;-71
2022/09/05 04:23:53;;;;;;;6.72;3.40;;;17.50;99.90;;;;;;4955201;29;20031;-71
2022/09/05 04:26:21;;;;;;;6.00;3.47;;;17.40;99.90;;;;;;4954794;28;20035;-71
2022/09/05 04:29:02;;;;;;;5.88;3.38;;;17.60;99.90;;;;;;4955221;29;20170;-71
2022/09/05 04:31:36;;;;;;;5.45;3.30;;;17.60;99.90;;;;;;4954892;29;20027;-71
2022/09/05 04:34:24;;;;;;;6.05;3.45;;;17.50;99.90;;;;;;4973490;28;20154;-71
2022/09/05 04:37:03;;;;;;;7.85;3.30;;;17.50;99.90;;;;;;4974962;28;20023;-71
2022/09/05 04:39:30;;;;;;;4.72;3.53;;;17.40;99.90;;;;;;4958981;28;20030;-71
2022/09/05 04:42:08;;;;;;;6.50;3.45;;;17.20;99.90;;;;;;4958940;28;20154;-71
2022/09/05 04:44:42;;;;;;;6.40;3.25;;;17.20;99.90;;;;;;4974264;28;20499;-71
2022/09/05 04:47:30;;;;;;;5.72;3.45;;;17.20;99.90;;;;;;4974804;28;20039;-71
2022/09/05 04:50:19;;;;;;;5.47;3.65;;;17.20;99.90;;;;;;4958702;28;20030;-71
2022/09/05 04:53:13;;;;;;;6.40;3.17;;;17.10;99.90;;;;;;4974201;28;20246;-71
2022/09/05 04:55:54;;;;;;;7.15;3.60;;;17.50;99.90;;;;;;5054910;28;20493;-70
2022/09/05 04:58:28;;;;;;;6.32;3.22;;;17.60;99.90;;;;;;5036661;28;20071;-71
2022/09/05 05:01:07;;;;;;;6.03;3.50;;;17.70;99.90;;;;;;5036577;28;20021;-71
2022/09/05 05:03:34;;;;;;;8.20;3.80;;;17.60;99.90;;;;;;5054410;28;20083;-71
2022/09/05 05:06:44;;;;;;;4.53;3.47;;;17.40;99.90;;;;;;5036385;28;20031;-70
2022/09/05 05:09:27;;;;;;;6.47;3.40;;;17.20;99.90;;;;;;5036252;28;20097;-71
2022/09/05 05:11:58;;;;;;;5.43;3.53;;;17.40;99.90;;;;;;5054799;28;20017;-70
2022/09/05 05:14:47;;;;;;;4.78;3.33;;;17.50;99.90;;;;;;5054353;28;20021;-71
2022/09/05 05:17:29;;;;;;;5.75;3.40;;;17.60;99.90;;;;;;5054694;28;20021;-72
2022/09/05 05:20:17;;;;;;;7.03;3.38;;;17.50;99.90;;;;;;5036341;28;20478;-71
2022/09/05 05:23:10;;;;;;;7.28;3.95;;;17.20;99.90;;;;;;5036307;28;20032;-71
2022/09/05 05:25:56;;;;;;;6.50;3.97;;;17.30;99.90;;;;;;5025452;28;20055;-71
2022/09/05 05:28:43;;;;;;;6.32;3.38;;;17.40;99.90;;;;;;5053955;28;20086;-71
2022/09/05 05:31:17;;;;;;;6.05;3.78;;;17.50;99.90;;;;;;5036286;28;20021;-71
2022/09/05 05:33:47;;;;;;;7.10;3.63;;;17.70;99.90;;;;;;5053939;28;20028;-71
2022/09/05 05:36:26;;;;;;;8.50;3.80;;;17.50;99.90;;;;;;5054212;28;20024;-71
2022/09/05 05:39:03;;;;;;;4.43;3.92;;;17.60;99.90;;;;;;5053280;28;20017;-71
2022/09/05 05:41:28;;;;;;;5.28;3.40;;;17.80;99.90;;;;;;5036211;28;20040;-70
2022/09/05 05:43:54;;;;;;;6.60;3.63;;;17.90;99.90;;;;;;5054439;28;20017;-71
2022/09/05 05:46:33;;;;;;;5.03;3.70;;;18.10;99.90;;;;;;5053979;28;20485;-71
2022/09/05 05:49:22;;;;;;;5.72;3.45;;;18.20;99.90;;;;;;5035859;28;20491;-70
2022/09/05 05:52:06;;;;;;;5.57;3.53;;;18.50;99.90;;;;;;5036803;28;20032;-71
2022/09/05 05:54:52;;;;;;;4.85;3.30;;;18.70;99.90;;;;;;5035705;28;20470;-71
2022/09/05 05:57:23;;;;;;;5.07;3.13;;;18.70;99.90;;;;;;5053757;28;20033;-70
2022/09/05 06:00:03;;;;;;;6.97;3.47;;;18.70;99.90;;;;;;5035935;28;20025;-70
2022/09/05 06:03:01;;;;;;;5.90;3.40;;;18.70;99.90;;;;;;5035897;28;20139;-71
2022/09/05 06:05:58;;;;;;;5.97;3.38;;;18.70;99.90;;;;;;5035694;28;20029;-70
2022/09/05 06:08:36;;;;;;;4.70;3.47;;;18.50;99.90;;;;;;5036312;28;20090;-70
2022/09/05 06:11:20;;;;;;;4.57;3.53;;;18.40;99.90;;;;;;5054219;28;20108;-69
2022/09/05 06:14:00;;;;;;;55.83;41.28;;;18.30;99.90;;;;;;5036886;28;20500;-70
2022/09/05 06:17:05;;;;;;;6.10;3.65;;;18.50;99.90;;;;;;5055324;28;20476;-70
2022/09/05 06:19:40;;;;;;;5.75;3.22;;;18.90;99.90;;;;;;5055445;28;20029;-71
2022/09/05 06:22:32;;;;;;;5.95;3.85;;;18.90;99.90;;;;;;5036299;28;20056;-70
2022/09/05 06:25:25;;;;;;;10.48;3.83;;;18.60;99.90;;;;;;5053238;28;20032;-71
2022/09/05 06:28:14;;;;;;;6.18;4.10;;;18.40;99.90;;;;;;5055355;28;20031;-71
2022/09/05 06:30:54;;;;;;;8.43;4.05;;;18.40;99.90;;;;;;5055040;28;20037;-69
2022/09/05 06:33:37;;;;;;;10.18;4.72;;;18.60;99.90;;;;;;5036691;28;20366;-71
2022/09/05 06:36:18;;;;;;;5.65;3.78;;;18.70;99.90;;;;;;5037901;28;20126;-72
2022/09/05 06:38:59;;;;;;;6.85;4.03;;;19.00;99.90;;;;;;5038084;28;20074;-73
2022/09/05 06:41:28;;;;;;;6.85;3.70;;;19.20;99.90;;;;;;5036566;28;20025;-69
2022/09/05 06:44:28;;;;;;;5.78;3.85;;;19.20;99.90;;;;;;5053932;28;20084;-70
2022/09/05 06:46:57;;;;;;;7.97;4.22;;;19.30;99.90;;;;;;5035631;28;20505;-70
2022/09/05 06:49:50;;;;;;;4.90;3.83;;;19.00;99.90;;;;;;5054960;28;20021;-70
2022/09/05 06:52:46;;;;;;;8.40;4.22;;;19.00;99.90;;;;;;5057257;28;20092;-70
2022/09/05 06:55:17;;;;;;;9.07;3.60;;;19.10;99.90;;;;;;5057163;28;20452;-70
2022/09/05 06:58:14;;;;;;;8.73;3.70;;;19.40;99.90;;;;;;5059808;28;20025;-70
2022/09/05 07:00:55;;;;;;;12.63;4.20;;;19.50;99.90;;;;;;5060934;28;20020;-69
2022/09/05 07:03:51;;;;;;;8.18;4.78;;;19.60;99.90;;;;;;5063037;28;20051;-70
2022/09/05 07:06:33;;;;;;;10.48;5.60;;;19.50;99.90;;;;;;5046975;28;20025;-69
2022/09/05 07:09:13;;;;;;;8.35;5.05;;;19.60;99.90;;;;;;5061054;28;20013;-70
2022/09/05 07:12:12;;;;;;;9.80;4.63;;;19.70;99.90;;;;;;5041778;28;20021;-68
2022/09/05 07:14:51;;;;;;;6.40;5.03;;;19.60;99.90;;;;;;5043268;28;20045;-69
2022/09/05 07:17:33;;;;;;;9.75;4.32;;;19.70;99.90;;;;;;5038756;28;20533;-71
2022/09/05 07:20:04;;;;;;;7.18;3.97;;;19.70;99.90;;;;;;5057076;28;20070;-71
2022/09/05 07:22:45;;;;;;;7.35;3.90;;;19.70;99.90;;;;;;5039221;28;20151;-70
2022/09/05 07:25:16;;;;;;;7.85;4.18;;;19.80;99.90;;;;;;5038049;28;20032;-70
2022/09/05 07:27:54;;;;;;;8.13;4.75;;;20.00;99.90;;;;;;5038314;28;20128;-69
2022/09/05 07:30:20;;;;;;;10.98;4.15;;;20.20;99.90;;;;;;5056252;28;20108;-70
2022/09/05 07:32:58;;;;;;;6.75;4.03;;;20.10;99.90;;;;;;5056041;28;20014;-70
2022/09/05 07:35:28;;;;;;;43.38;5.65;;;20.10;99.90;;;;;;5056262;28;20021;-69
2022/09/05 07:37:59;;;;;;;6.30;4.10;;;20.20;99.90;;;;;;5038052;28;20066;-69
2022/09/05 07:40:28;;;;;;;6.20;3.90;;;20.00;99.90;;;;;;5055916;28;20543;-72
2022/09/05 07:43:06;;;;;;;6.13;4.03;;;20.10;99.90;;;;;;5055865;28;20025;-72
2022/09/05 07:45:36;;;;;;;8.27;3.60;;;20.20;99.90;;;;;;5038053;28;20029;-72
2022/09/05 07:48:04;;;;;;;9.65;4.30;;;20.20;99.90;;;;;;5038276;28;20029;-69
2022/09/05 07:50:33;;;;;;;7.90;3.97;;;20.30;99.90;;;;;;5037830;28;20049;-69
2022/09/05 07:53:02;;;;;;;6.45;4.32;;;20.50;99.90;;;;;;5056046;28;20052;-70
2022/09/05 07:55:30;;;;;;;7.82;3.97;;;20.50;99.90;;;;;;5055358;28;20052;-69
2022/09/05 07:58:00;;;;;;;7.68;3.95;;;20.60;99.90;;;;;;5055340;28;20410;-70
2022/09/05 08:00:28;;;;;;;7.60;4.47;;;20.50;99.90;;;;;;5036548;28;20481;-69
2022/09/05 08:02:56;;;;;;;9.27;4.57;;;20.70;99.90;;;;;;5037405;28;20025;-69
2022/09/05 08:05:24;;;;;;;9.73;4.43;;;20.80;99.90;;;;;;5037648;28;20454;-70
2022/09/05 08:07:54;;;;;;;6.53;4.88;;;21.00;99.90;;;;;;5037338;28;20052;-70
2022/09/05 08:10:30;;;;;;;5.55;4.95;;;21.00;99.90;;;;;;5037468;28;20106;-72
2022/09/05 08:13:01;;;;;;;13.02;5.32;;;20.70;99.90;;;;;;5055196;28;20029;-69
2022/09/05 08:15:28;;;;;;;6.65;4.07;;;20.60;99.90;;;;;;5037214;28;20021;-69
2022/09/05 08:18:03;;;;;;;11.18;4.60;;;20.80;99.90;;;;;;5037241;28;20029;-71
2022/09/05 08:20:41;;;;;;;7.70;4.38;;;20.90;99.90;;;;;;5055094;28;20029;-72
2022/09/05 08:23:45;;;;;;;6.47;4.03;;;21.10;99.90;;;;;;5055377;28;20363;-71
2022/09/05 08:26:28;;;;;;;12.02;3.90;;;21.10;99.90;;;;;;5037371;28;20477;-72
2022/09/05 08:29:04;;;;;;;7.90;4.40;;;21.10;99.90;;;;;;5057403;28;20032;-71
2022/09/05 08:31:51;;;;;;;11.20;4.53;;;21.30;99.90;;;;;;5055903;28;20025;-70
2022/09/05 08:34:48;;;;;;;5.68;4.30;;;21.60;99.90;;;;;;5037097;28;20022;-71
2022/09/05 08:37:25;;;;;;;15.15;5.05;;;21.80;99.90;;;;;;5055708;28;20025;-70
2022/09/05 08:40:01;;;;;;;7.68;4.40;;;22.00;99.90;;;;;;5055080;28;20478;-70
2022/09/05 08:42:44;;;;;;;6.22;4.25;;;22.20;99.90;;;;;;5054869;28;20051;-70
2022/09/05 08:45:36;;;;;;;6.00;4.00;;;22.40;99.90;;;;;;5055220;28;20032;-70
2022/09/05 08:48:20;;;;;;;6.88;3.70;;;23.70;99.90;;;;;;5030168;28;20044;-73
2022/09/05 08:51:15;;;;;;;6.47;3.55;;;28.00;99.90;;;;;;5037201;28;20494;-71
2022/09/05 08:54:04;;;;;;;6.68;3.83;;;32.50;93.40;;;;;;5055292;28;20045;-72
2022/09/05 08:56:59;;;;;;;4.05;3.22;;;35.50;84.10;;;;;;5026665;28;20041;-71
2022/09/05 08:59:50;;;;;;;4.53;3.10;;;38.00;76.30;;;;;;5032965;28;20033;-70
2022/09/05 09:02:44;;;;;;;5.25;3.10;;;39.50;70.10;;;;;;5036793;28;20032;-70
2022/09/05 09:05:13;;;;;;;17.27;3.30;;;39.50;66.90;;;;;;5036651;28;20027;-69
2022/09/05 09:07:53;;;;;;;5.47;2.80;;;40.20;64.90;;;;;;5054405;28;20500;-69
2022/09/05 09:10:26;;;;;;;4.30;3.08;;;41.20;62.90;;;;;;5054414;28;20025;-68
2022/09/05 09:13:06;;;;;;;5.07;3.08;;;41.60;61.10;;;;;;5054019;28;20029;-69
2022/09/05 09:15:49;;;;;;;5.53;3.10;;;41.90;59.60;;;;;;5054154;28;20414;-69
2022/09/05 09:18:17;;;;;;;6.57;2.95;;;42.80;58.60;;;;;;5054391;28;20582;-69
2022/09/05 09:20:59;;;;;;;5.10;2.92;;;43.70;57.40;;;;;;5054119;28;20367;-69
2022/09/05 09:23:43;;;;;;;4.00;2.60;;;43.10;56.60;;;;;;5054434;28;20075;-70
2022/09/05 09:26:20;;;;;;;4.18;2.63;;;42.70;56.50;;;;;;5053761;28;20424;-69
2022/09/05 09:29:02;;;;;;;5.28;2.70;;;43.20;56.20;;;;;;5054300;28;20036;-68
2022/09/05 09:31:36;;;;;;;4.50;2.60;;;43.70;54.90;;;;;;5054312;28;20017;-68
2022/09/05 09:34:24;;;;;;;5.55;2.47;;;44.10;54.90;;;;;;5036164;28;20530;-69
2022/09/05 09:36:58;;;;;;;3.80;2.15;;;44.80;53.70;;;;;;5036023;28;20163;-70
2022/09/05 09:39:55;;;;;;;5.93;2.40;;;44.10;53.80;;;;;;5054279;28;20020;-70
2022/09/05 09:42:46;;;;;;;4.63;2.38;;;43.70;53.90;;;;;;5036451;28;20028;-69
2022/09/05 09:45:47;;;;;;;5.05;2.28;;;44.20;53.90;;;;;;5054089;28;20071;-68
2022/09/05 09:48:28;;;;;;;4.43;2.00;;;44.80;53.10;;;;;;5054319;28;20044;-69
2022/09/05 09:51:21;;;;;;;2.90;2.47;;;45.60;52.00;;;;;;5054248;28;20349;-69
2022/09/05 09:54:09;;;;;;;4.22;2.35;;;46.10;51.50;;;;;;5053831;28;20033;-69
2022/09/05 09:57:02;;;;;;;4.07;2.33;;;45.80;50.90;;;;;;5071904;22;20132;-74
2022/09/05 09:59:46;;;;;;;3.65;2.17;;;46.00;50.80;;;;;;5036592;28;20029;-74
2022/09/05 10:02:21;;;;;;;4.20;2.42;;;45.50;50.30;;;;;;5036675;28;20068;-75
2022/09/05 10:04:57;;;;;;;6.75;2.75;;;45.50;50.70;;;;;;5036256;28;20025;-74
2022/09/05 10:07:37;;;;;;;2.97;2.20;;;44.70;50.70;;;;;;5055718;28;20034;-74
2022/09/05 10:10:36;;;;;;;3.92;2.00;;;45.00;51.20;;;;;;5073871;28;20040;-74
2022/09/05 10:13:54;;;;;;;2.75;2.00;;;45.30;50.60;;;;;;5073606;28;20544;-73
2022/09/05 10:16:35;;;;;;;5.10;2.40;;;45.30;50.50;;;;;;5053834;28;20078;-73
2022/09/05 10:19:35;;;;;;;4.70;2.25;;;44.30;50.80;;;;;;5055537;28;20028;-73
2022/09/05 10:22:19;;;;;;;2.72;2.40;;;44.10;51.10;;;;;;5073456;28;20175;-74
2022/09/05 10:25:13;;;;;;;5.43;1.80;;;44.50;50.30;;;;;;5054719;28;20047;-74
2022/09/05 10:27:59;;;;;;;3.25;1.88;;;44.00;49.90;;;;;;5057006;28;20028;-74
2022/09/05 10:30:45;;;;;;;3.90;2.00;;;43.90;50.40;;;;;;5055649;28;20356;-74
2022/09/05 10:33:22;;;;;;;;;;;43.20;50.70;;;;;;5055651;28;20029;-74
2022/09/05 10:36:23;;;;;;;2.33;1.70;;;43.30;51.00;;;;;;5054920;28;19905;-73
2022/09/05 10:38:56;;;;;;;4.53;2.10;;;44.20;50.60;;;;;;5062194;28;20107;-74
2022/09/05 10:41:38;;;;;;;3.67;2.00;;;43.40;50.40;;;;;;5055405;28;20059;-74
2022/09/05 10:44:09;;;;;;;3.05;2.10;;;42.70;51.10;;;;;;5054999;28;20020;-74
2022/09/05 10:46:46;;;;;;;2.70;2.15;;;42.70;51.60;;;;;;5054993;28;20051;-74
2022/09/05 10:49:14;;;;;;;2.92;2.40;;;43.40;51.30;;;;;;5072971;28;20119;-74
2022/09/05 10:51:48;;;;;;;3.83;1.88;;;44.00;50.60;;;;;;5073347;28;20105;-74
2022/09/05 10:55:00;;;;;;;4.05;2.20;;;44.10;50.50;;;;;;5073057;28;20020;-74
2022/09/05 10:57:46;;;;;;;3.13;2.28;;;44.10;50.40;;;;;;4972418;28;20585;-73
2022/09/05 11:00:33;;;;;;;3.60;2.42;;;42.40;51.40;;;;;;4956634;28;20026;-74
2022/09/05 11:03:00;;;;;;;3.95;2.38;;;42.70;51.70;;;;;;4972197;28;20058;-73
2022/09/05 11:05:45;;;;;;;5.55;2.35;;;42.90;51.30;;;;;;4972012;28;20075;-74
2022/09/05 11:08:35;;;;;;;5.43;2.00;;;42.00;51.20;;;;;;4972268;28;20502;-74
2022/09/05 11:11:25;;;;;;;4.63;2.58;;;39.10;53.50;;;;;;4956742;28;20023;-74
2022/09/05 11:13:54;;;;;;;5.68;2.00;;;36.30;55.70;;;;;;4972254;28;20039;-74
2022/09/05 11:16:47;;;;;;;4.10;2.25;;;34.50;58.50;;;;;;4955794;28;20152;-74
2022/09/05 11:19:34;;;;;;;3.42;2.20;;;33.20;60.40;;;;;;4972374;28;20114;-74
2022/09/05 11:22:02;;;;;;;2.95;2.15;;;31.90;61.90;;;;;;4955761;28;20031;-74
2022/09/05 11:24:50;;;;;;;4.10;2.40;;;31.10;62.90;;;;;;4972139;28;20023;-74
2022/09/05 11:27:34;;;;;;;6.82;2.50;;;30.70;64.60;;;;;;4971843;28;20070;-73
2022/09/05 11:30:05;;;;;;;2.65;1.92;;;30.10;66.30;;;;;;4955518;28;20050;-74
2022/09/05 11:32:47;;;;;;;4.85;2.58;;;30.00;66.00;;;;;;4972973;28;20022;-73
2022/09/05 11:35:20;;;;;;;4.10;2.30;;;29.50;67.40;;;;;;5076324;28;20020;-74
2022/09/05 11:37:58;;;;;;;3.45;2.80;;;28.80;69.90;;;;;;5079349;28;20025;-73
2022/09/05 11:40:49;;;;;;;7.25;2.65;;;28.60;71.20;;;;;;5077975;28;20143;-73
2022/09/05 11:43:26;;;;;;;3.65;2.40;;;28.30;71.80;;;;;;5060043;28;20573;-73
2022/09/05 11:46:08;;;;;;;5.38;2.65;;;28.40;72.00;;;;;;5060260;28;20031;-73
2022/09/05 11:49:04;;;;;;;4.15;2.20;;;28.40;72.70;;;;;;5077842;28;20086;-73
2022/09/05 11:52:01;;;;;;;3.90;2.45;;;28.50;72.70;;;;;;5078231;28;20025;-74
2022/09/05 11:54:54;;;;;;;2.90;2.08;;;28.60;71.70;;;;;;5080495;28;20021;-74
2022/09/05 11:57:41;;;;;;;5.25;2.40;;;28.60;70.50;;;;;;5079024;28;20033;-72
2022/09/05 12:00:16;;;;;;;3.90;2.70;;;28.80;70.40;;;;;;5059576;28;20025;-74
2022/09/05 12:03:04;;;;;;;4.07;2.75;;;28.80;70.70;;;;;;5077846;28;20035;-74
2022/09/05 12:05:33;;;;;;;4.03;2.50;;;28.50;73.00;;;;;;5078032;28;20028;-75
2022/09/05 12:08:16;;;;;;;5.70;3.17;;;28.60;73.20;;;;;;5060614;28;20028;-76
2022/09/05 12:10:58;;;;;;;5.18;2.40;;;28.70;73.20;;;;;;5060500;28;20021;-71
2022/09/05 12:13:32;;;;;;;2.67;2.42;;;28.70;73.00;;;;;;5076734;28;20357;-73
2022/09/05 12:16:00;;;;;;;5.95;2.38;;;28.70;73.40;;;;;;5076112;28;20017;-74
2022/09/05 12:18:28;;;;;;;5.05;2.45;;;28.20;74.40;;;;;;5058586;28;20027;-74
2022/09/05 12:21:08;;;;;;;5.28;2.60;;;28.10;74.30;;;;;;5077460;28;20028;-73
2022/09/05 12:24:03;;;;;;;3.35;2.25;;;28.00;74.00;;;;;;5079338;28;20032;-73
2022/09/05 12:26:56;;;;;;;6.97;2.90;;;28.10;74.20;;;;;;5079813;28;20024;-73
2022/09/05 12:29:26;;;;;;;5.15;2.33;;;28.10;75.10;;;;;;5059704;28;20048;-70
2022/09/05 12:31:59;;;;;;;9.63;2.60;;;28.30;74.80;;;;;;5076736;28;20020;-71
2022/09/05 12:34:51;;;;;;;4.28;2.92;;;28.30;74.80;;;;;;5077416;28;20021;-70
2022/09/05 12:37:22;;;;;;;5.97;2.28;;;28.40;74.30;;;;;;5077524;28;20021;-70
2022/09/05 12:39:57;;;;;;;6.28;2.97;;;28.50;75.00;;;;;;5060500;28;20032;-70
2022/09/05 12:42:49;;;;;;;4.75;2.60;;;28.20;76.10;;;;;;5078566;28;20088;-71
2022/09/05 12:45:17;;;;;;;3.38;2.83;;;27.80;77.00;;;;;;5077320;28;20031;-72
2022/09/05 12:47:58;;;;;;;6.18;2.70;;;27.80;78.70;;;;;;5058870;28;20115;-70
2022/09/05 12:50:39;;;;;;;4.38;2.90;;;27.40;77.30;;;;;;5077089;28;20048;-71
2022/09/05 12:53:09;;;;;;;5.10;2.25;;;27.40;78.50;;;;;;5057428;28;20106;-71
2022/09/05 12:55:57;;;;;;;6.90;2.90;;;27.50;78.10;;;;;;5056477;28;20078;-71
2022/09/05 12:58:28;;;;;;;5.80;2.65;;;27.30;78.10;;;;;;5074625;28;20531;-70
2022/09/05 13:01:12;;;;;;;6.18;2.83;;;27.10;78.20;;;;;;5056456;28;20033;-70
2022/09/05 13:03:55;;;;;;;3.22;2.60;;;27.20;81.90;;;;;;5074594;28;20043;-75
2022/09/05 13:06:27;;;;;;;5.40;2.60;;;27.10;82.50;;;;;;5075113;28;20133;-74
2022/09/05 13:09:02;;;;;;;4.22;2.78;;;27.00;80.80;;;;;;5057141;28;20388;-74
2022/09/05 13:11:30;;;;;;;5.35;2.60;;;27.00;80.20;;;;;;5056991;28;20017;-75
2022/09/05 13:14:05;;;;;;;3.78;2.50;;;26.90;77.10;;;;;;5075036;28;20039;-72
2022/09/05 13:16:31;;;;;;;4.18;2.67;;;27.10;79.50;;;;;;5074079;28;20056;-71
2022/09/05 13:19:06;;;;;;;4.28;2.40;;;27.10;78.90;;;;;;5056659;28;20035;-72
2022/09/05 13:21:44;;;;;;;5.75;2.85;;;27.30;77.40;;;;;;5074387;28;20031;-72
2022/09/05 13:24:10;;;;;;;6.32;3.33;;;27.70;74.60;;;;;;5056065;28;20050;-72
2022/09/05 13:26:55;;;;;;;7.15;4.07;;;27.60;78.50;;;;;;5055679;28;20487;-71
2022/09/05 13:29:47;;;;;;;8.98;5.28;;;27.50;77.00;;;;;;5055810;28;20124;-72
2022/09/05 13:32:29;;;;;;;21.33;9.90;;;27.80;75.40;;;;;;5073874;28;20088;-72
2022/09/05 13:35:16;;;;;;;3.20;2.10;;;27.80;76.30;;;;;;5055950;28;20027;-74
2022/09/05 13:37:46;;;;;;;4.68;2.20;;;28.20;69.80;;;;;;5055915;28;20020;-75
2022/09/05 13:40:18;;;;;;;6.88;3.83;;;28.60;66.80;;;;;;5056053;28;20052;-75
2022/09/05 13:43:04;;;;;;;7.40;3.53;;;28.60;67.60;;;;;;5056660;28;20035;-73
2022/09/05 13:45:32;;;;;;;7.30;4.22;;;28.90;71.40;;;;;;5056240;28;20548;-71
2022/09/05 13:48:17;;;;;;;8.20;4.10;;;28.60;70.70;;;;;;5073665;28;20054;-73
2022/09/05 13:50:51;;;;;;;6.18;3.55;;;28.40;71.50;;;;;;5055691;28;20062;-72
2022/09/05 13:53:29;;;;;;;3.75;2.85;;;28.10;72.30;;;;;;5073261;28;20024;-73
2022/09/05 13:56:22;;;;;;;3.58;2.30;;;28.10;68.70;;;;;;5073190;28;20048;-71
2022/09/05 13:59:13;;;;;;;2.60;1.90;;;28.30;69.20;;;;;;5054544;28;20023;-71
2022/09/05 14:01:45;;;;;;;7.75;2.45;;;28.50;67.20;;;;;;5043731;28;20029;-70
2022/09/05 14:04:17;;;;;;;5.80;3.08;;;28.50;69.90;;;;;;5055282;28;20035;-70